Time;durP1;ratioP1;P1;durP2;ratioP2;P2;SDS_P1;SDS_P2;PMS_P1;PMS_P2;Temp;Humidity;BMP_temperature;BMP_pressure;BME280_temperature;BME280_humidity;BME280_pressure;Samples;Min_cycle;Max_cycle;Signal;HPM_P1;HPM_P2
2022/03/16 00:00:28;;;;;;;5.60;2.60;;;;;;;;;;4956871;29;20487;-67
2022/03/16 00:02:54;;;;;;;4.30;2.72;;;;;;;;;;4956617;29;20038;-67
2022/03/16 00:05:20;;;;;;;8.95;2.72;;;;;;;;;;4955949;29;20039;-67
2022/03/16 00:07:46;;;;;;;3.50;2.90;;;;;;;;;;4956707;29;20102;-67
2022/03/16 00:10:14;;;;;;;5.13;2.83;;;;;;;;;;4939510;29;20027;-68
2022/03/16 00:12:40;;;;;;;3.92;2.90;;;;;;;;;;4956435;29;20146;-67
2022/03/16 00:15:07;;;;;;;7.57;3.08;;;;;;;;;;4956830;29;20023;-67
2022/03/16 00:17:33;;;;;;;7.47;2.38;;;;;;;;;;4956506;28;20042;-67
2022/03/16 00:19:59;;;;;;;3.72;2.75;;;;;;;;;;4955698;29;20082;-67
2022/03/16 00:22:25;;;;;;;7.35;3.00;;;;;;;;;;4939433;29;20059;-67
2022/03/16 00:24:51;;;;;;;4.05;2.90;;;;;;;;;;4956386;29;20410;-68
2022/03/16 00:27:17;;;;;;;6.63;2.88;;;;;;;;;;4956556;29;20051;-68
2022/03/16 00:29:43;;;;;;;5.63;2.92;;;;;;;;;;4955349;29;20023;-67
2022/03/16 00:32:12;;;;;;;2.83;2.55;;;;;;;;;;4956493;29;20371;-67
2022/03/16 00:34:38;;;;;;;4.00;2.50;;;;;;;;;;4972587;28;20447;-67
2022/03/16 00:37:04;;;;;;;5.95;2.85;;;;;;;;;;4960957;28;20047;-67
2022/03/16 00:39:30;;;;;;;3.70;2.50;;;;;;;;;;4956306;29;20106;-67
2022/03/16 00:41:56;;;;;;;3.03;2.75;;;;;;;;;;4938557;29;20099;-66
2022/03/16 00:44:23;;;;;;;2.17;1.98;;;;;;;;;;4956081;29;20470;-68
2022/03/16 00:46:49;;;;;;;5.97;2.75;;;;;;;;;;4956275;28;20039;-67
2022/03/16 00:49:15;;;;;;;5.75;2.75;;;;;;;;;;4956055;29;20107;-67
2022/03/16 00:51:41;;;;;;;4.22;2.80;;;;;;;;;;4955020;29;20038;-67
2022/03/16 00:54:07;;;;;;;3.45;2.55;;;;;;;;;;4956154;29;20386;-67
2022/03/16 00:56:33;;;;;;;3.72;2.63;;;;;;;;;;4955848;29;20537;-67
2022/03/16 00:58:59;;;;;;;2.67;2.33;;;;;;;;;;4938652;29;20114;-67
2022/03/16 01:01:25;;;;;;;2.60;2.40;;;;;;;;;;4955025;28;20114;-66
2022/03/16 01:03:51;;;;;;;3.88;2.67;;;;;;;;;;4955821;29;20027;-67
2022/03/16 01:06:16;;;;;;;6.68;2.60;;;;;;;;;;4937601;29;20451;-67
2022/03/16 01:08:43;;;;;;;3.60;2.65;;;;;;;;;;4955545;29;20059;-68
2022/03/16 01:11:10;;;;;;;4.05;2.78;;;;;;;;;;4955164;29;20041;-68
2022/03/16 01:13:36;;;;;;;2.88;2.58;;;;;;;;;;4955568;29;20031;-67
2022/03/16 01:16:02;;;;;;;7.93;3.03;;;;;;;;;;4955493;28;20086;-67
2022/03/16 01:18:28;;;;;;;6.82;3.10;;;;;;;;;;4955574;29;20035;-67
2022/03/16 01:20:54;;;;;;;3.50;2.92;;;;;;;;;;4938349;29;20027;-67
2022/03/16 01:23:20;;;;;;;4.80;2.88;;;;;;;;;;4938277;29;20035;-67
2022/03/16 01:25:45;;;;;;;3.40;2.80;;;;;;;;;;4955308;29;20051;-67
2022/03/16 01:28:11;;;;;;;4.07;2.45;;;;;;;;;;4955519;29;20057;-67
2022/03/16 01:30:37;;;;;;;4.45;2.75;;;;;;;;;;4955398;29;20039;-67
2022/03/16 01:33:03;;;;;;;4.25;2.65;;;;;;;;;;4957060;28;20023;-67
2022/03/16 01:35:29;;;;;;;3.40;2.67;;;;;;;;;;4974629;28;20109;-67
2022/03/16 01:37:55;;;;;;;3.08;2.78;;;;;;;;;;4974651;28;20150;-67
2022/03/16 01:40:21;;;;;;;3.33;2.70;;;;;;;;;;4963851;28;20035;-67
2022/03/16 01:42:48;;;;;;;4.38;3.17;;;;;;;;;;4954944;29;20031;-67
2022/03/16 01:45:13;;;;;;;4.07;3.08;;;;;;;;;;4955012;29;20023;-67
2022/03/16 01:47:39;;;;;;;7.57;2.72;;;;;;;;;;4954978;28;20034;-67
2022/03/16 01:50:06;;;;;;;6.45;2.95;;;;;;;;;;4955061;29;20035;-67
2022/03/16 01:52:32;;;;;;;4.88;2.63;;;;;;;;;;4954169;29;20452;-67
2022/03/16 01:55:02;;;;;;;3.65;3.08;;;;;;;;;;4954848;29;20031;-67
2022/03/16 01:57:28;;;;;;;5.05;2.95;;;;;;;;;;4954891;29;20482;-67
2022/03/16 01:59:54;;;;;;;4.82;3.03;;;;;;;;;;4954824;29;20031;-66
2022/03/16 02:02:20;;;;;;;3.67;3.08;;;;;;;;;;4954567;29;20040;-66
2022/03/16 02:04:46;;;;;;;3.20;2.90;;;;;;;;;;4954683;29;20463;-66
2022/03/16 02:07:12;;;;;;;5.35;2.90;;;;;;;;;;4937448;29;20027;-67
2022/03/16 02:09:38;;;;;;;5.30;3.08;;;;;;;;;;4953775;29;20030;-67
2022/03/16 02:12:05;;;;;;;6.72;3.40;;;;;;;;;;4953376;28;20028;-66
2022/03/16 02:14:31;;;;;;;5.18;2.78;;;;;;;;;;4954532;29;20114;-65
2022/03/16 02:16:58;;;;;;;3.15;2.38;;;;;;;;;;4954481;28;20118;-65
2022/03/16 02:19:25;;;;;;;5.90;3.75;;;;;;;;;;4954715;29;20023;-66
2022/03/16 02:21:55;;;;;;;4.78;3.30;;;;;;;;;;4954233;29;20391;-66
2022/03/16 02:24:23;;;;;;;3.90;3.20;;;;;;;;;;4954465;29;20034;-66
2022/03/16 02:26:49;;;;;;;4.15;3.22;;;;;;;;;;4936955;29;20061;-66
2022/03/16 02:29:15;;;;;;;5.53;3.25;;;;;;;;;;4954415;29;20110;-66
2022/03/16 02:31:41;;;;;;;3.25;2.85;;;;;;;;;;4953930;29;20027;-66
2022/03/16 02:34:07;;;;;;;4.38;3.20;;;;;;;;;;4954181;29;20031;-66
2022/03/16 02:36:33;;;;;;;3.85;3.17;;;;;;;;;;4936298;29;20042;-65
2022/03/16 02:38:59;;;;;;;5.63;3.45;;;;;;;;;;4954001;29;20031;-66
2022/03/16 02:41:25;;;;;;;5.38;3.45;;;;;;;;;;4954007;29;20163;-65
2022/03/16 02:43:51;;;;;;;10.13;3.25;;;;;;;;;;4953985;29;20391;-65
2022/03/16 02:46:17;;;;;;;5.90;3.53;;;;;;;;;;4954018;28;20481;-65
2022/03/16 02:48:44;;;;;;;4.32;3.30;;;;;;;;;;4954062;29;20058;-65
2022/03/16 02:51:10;;;;;;;6.57;3.35;;;;;;;;;;4952267;29;20019;-66
2022/03/16 02:53:45;;;;;;;5.63;3.30;;;;;;;;;;4936445;29;20049;-66
2022/03/16 02:56:11;;;;;;;3.65;3.35;;;;;;;;;;4936745;29;20031;-66
2022/03/16 02:58:37;;;;;;;7.75;3.10;;;;;;;;;;4953933;29;20408;-67
2022/03/16 03:01:04;;;;;;;13.70;3.28;;;;;;;;;;4953548;29;20031;-66
2022/03/16 03:03:30;;;;;;;6.68;3.88;;;;;;;;;;4953706;29;20138;-66
2022/03/16 03:05:56;;;;;;;3.50;3.20;;;;;;;;;;4936570;29;20158;-66
2022/03/16 03:08:22;;;;;;;5.07;3.75;;;;;;;;;;4953314;29;20027;-66
2022/03/16 03:10:48;;;;;;;6.60;3.50;;;;;;;;;;4953759;29;20035;-67
2022/03/16 03:13:14;;;;;;;3.85;3.47;;;;;;;;;;4953672;29;20055;-67
2022/03/16 03:15:42;;;;;;;3.50;3.20;;;;;;;;;;4953365;28;20106;-67
2022/03/16 03:18:08;;;;;;;5.68;3.30;;;;;;;;;;4937071;29;20035;-66
2022/03/16 03:20:34;;;;;;;5.60;4.47;;;;;;;;;;4953628;29;20098;-67
2022/03/16 03:23:00;;;;;;;4.88;3.90;;;;;;;;;;4953352;28;20037;-67
2022/03/16 03:25:25;;;;;;;7.60;4.20;;;;;;;;;;4951097;29;20455;-67
2022/03/16 03:27:51;;;;;;;6.15;4.45;;;;;;;;;;4953762;29;20119;-67
2022/03/16 03:30:17;;;;;;;8.85;4.60;;;;;;;;;;4953295;29;20027;-67
2022/03/16 03:32:43;;;;;;;6.95;4.95;;;;;;;;;;4954076;28;20053;-67
2022/03/16 03:35:10;;;;;;;7.13;5.18;;;;;;;;;;4972472;28;20078;-66
2022/03/16 03:37:36;;;;;;;6.80;5.57;;;;;;;;;;4972726;28;20045;-67
2022/03/16 03:40:04;;;;;;;7.20;4.82;;;;;;;;;;4955570;28;20034;-67
2022/03/16 03:42:30;;;;;;;10.32;5.20;;;;;;;;;;4939903;29;20058;-66
2022/03/16 03:44:56;;;;;;;9.60;5.40;;;;;;;;;;4953324;29;20135;-66
2022/03/16 03:47:22;;;;;;;9.65;5.90;;;;;;;;;;4953207;28;20488;-66
2022/03/16 03:49:47;;;;;;;7.13;5.70;;;;;;;;;;4953070;29;20031;-66
2022/03/16 03:52:13;;;;;;;6.82;5.75;;;;;;;;;;4952899;29;20078;-66
2022/03/16 03:54:40;;;;;;;7.00;6.22;;;;;;;;;;4953100;29;20024;-66
2022/03/16 03:57:06;;;;;;;7.45;6.20;;;;;;;;;;4935852;29;20063;-66
2022/03/16 03:59:32;;;;;;;7.22;6.50;;;;;;;;;;4953068;29;20129;-66
2022/03/16 04:01:58;;;;;;;7.63;6.55;;;;;;;;;;4952887;29;20479;-67
2022/03/16 04:04:24;;;;;;;7.78;6.95;;;;;;;;;;4953201;29;20690;-66
2022/03/16 04:06:50;;;;;;;6.90;6.20;;;;;;;;;;4953290;29;20086;-66
2022/03/16 04:09:16;;;;;;;7.97;7.15;;;;;;;;;;4952123;29;20063;-67
2022/03/16 04:11:42;;;;;;;14.25;7.10;;;;;;;;;;4952740;29;20034;-67
2022/03/16 04:14:10;;;;;;;9.25;7.32;;;;;;;;;;4936137;29;20023;-67
2022/03/16 04:16:36;;;;;;;9.15;6.97;;;;;;;;;;4952757;28;20782;-67
2022/03/16 04:19:02;;;;;;;8.57;7.20;;;;;;;;;;4935607;29;20082;-66
2022/03/16 04:21:28;;;;;;;7.60;6.53;;;;;;;;;;4954718;28;20016;-66
2022/03/16 04:23:54;;;;;;;7.57;6.70;;;;;;;;;;4960389;28;20744;-66
2022/03/16 04:26:20;;;;;;;9.10;6.60;;;;;;;;;;4962908;28;20039;-66
2022/03/16 04:28:46;;;;;;;7.93;6.68;;;;;;;;;;4962320;28;20650;-66
2022/03/16 04:31:12;;;;;;;9.70;7.18;;;;;;;;;;4943658;28;20095;-66
2022/03/16 04:33:39;;;;;;;8.68;7.20;;;;;;;;;;4961060;28;20491;-66
2022/03/16 04:36:08;;;;;;;8.82;7.43;;;;;;;;;;4963275;28;20023;-67
2022/03/16 04:38:34;;;;;;;8.45;7.10;;;;;;;;;;4955429;29;20031;-66
2022/03/16 04:41:01;;;;;;;9.50;7.43;;;;;;;;;;4955904;29;20027;-66
2022/03/16 04:43:27;;;;;;;8.68;7.20;;;;;;;;;;4938990;29;20038;-66
2022/03/16 04:45:53;;;;;;;8.55;7.05;;;;;;;;;;4956123;28;20023;-66
2022/03/16 04:48:19;;;;;;;12.27;7.22;;;;;;;;;;4939140;29;20122;-66
2022/03/16 04:50:45;;;;;;;7.55;6.70;;;;;;;;;;4956042;29;20094;-66
2022/03/16 04:53:11;;;;;;;8.50;6.30;;;;;;;;;;4955613;29;20032;-66
2022/03/16 04:55:37;;;;;;;8.43;6.63;;;;;;;;;;4956151;29;20035;-66
2022/03/16 04:58:06;;;;;;;8.57;6.97;;;;;;;;;;4956020;29;20035;-66
2022/03/16 05:00:34;;;;;;;8.13;7.10;;;;;;;;;;4938809;29;20047;-66
2022/03/16 05:02:59;;;;;;;7.50;6.70;;;;;;;;;;4955748;29;20035;-67
2022/03/16 05:05:25;;;;;;;8.63;6.80;;;;;;;;;;4956149;29;20130;-66
2022/03/16 05:07:51;;;;;;;9.63;7.32;;;;;;;;;;4938539;29;20023;-66
2022/03/16 05:10:17;;;;;;;12.07;7.13;;;;;;;;;;4954403;29;20039;-67
2022/03/16 05:12:44;;;;;;;11.10;7.10;;;;;;;;;;4955277;29;20028;-67
2022/03/16 05:15:12;;;;;;;9.18;7.28;;;;;;;;;;4955576;29;20035;-67
2022/03/16 05:17:39;;;;;;;7.75;6.63;;;;;;;;;;4938384;29;20050;-67
2022/03/16 05:20:05;;;;;;;9.32;6.97;;;;;;;;;;4955675;29;20027;-66
2022/03/16 05:22:32;;;;;;;8.00;6.45;;;;;;;;;;4955223;29;20035;-66
2022/03/16 05:24:58;;;;;;;6.88;6.07;;;;;;;;;;4955288;29;20098;-66
2022/03/16 05:27:24;;;;;;;9.85;6.75;;;;;;;;;;4955591;29;20127;-66
2022/03/16 05:29:50;;;;;;;10.98;7.10;;;;;;;;;;4955463;29;20030;-66
2022/03/16 05:32:16;;;;;;;9.60;6.60;;;;;;;;;;4955313;29;20058;-65
2022/03/16 05:34:42;;;;;;;8.80;6.97;;;;;;;;;;4938027;29;20115;-66
2022/03/16 05:37:08;;;;;;;11.38;7.03;;;;;;;;;;4955253;29;20496;-66
2022/03/16 05:39:34;;;;;;;8.93;7.03;;;;;;;;;;4937963;29;20034;-65
2022/03/16 05:42:02;;;;;;;9.10;7.10;;;;;;;;;;4954913;29;20035;-66
2022/03/16 05:44:29;;;;;;;6.95;5.80;;;;;;;;;;4937003;29;20032;-64
2022/03/16 05:46:57;;;;;;;10.50;7.38;;;;;;;;;;4954816;28;20122;-65
2022/03/16 05:49:25;;;;;;;8.85;6.57;;;;;;;;;;4955278;29;20349;-66
2022/03/16 05:51:51;;;;;;;8.25;6.63;;;;;;;;;;4954261;29;20075;-65
2022/03/16 05:54:17;;;;;;;9.20;6.65;;;;;;;;;;4954895;29;20035;-65
2022/03/16 05:56:43;;;;;;;9.00;6.70;;;;;;;;;;4954675;29;20043;-65
2022/03/16 05:59:09;;;;;;;8.50;6.28;;;;;;;;;;4954706;29;20023;-64
2022/03/16 06:01:35;;;;;;;8.50;7.60;;;;;;;;;;4953200;29;20439;-65
2022/03/16 06:04:01;;;;;;;8.82;6.72;;;;;;;;;;4954690;29;20031;-66
2022/03/16 06:06:29;;;;;;;8.95;6.65;;;;;;;;;;4954713;29;20033;-65
2022/03/16 06:08:55;;;;;;;7.05;6.32;;;;;;;;;;4954527;29;20098;-65
2022/03/16 06:11:21;;;;;;;7.60;6.82;;;;;;;;;;4954208;29;20360;-65
2022/03/16 06:13:47;;;;;;;8.45;6.88;;;;;;;;;;4954582;29;20045;-66
2022/03/16 06:16:13;;;;;;;7.60;6.68;;;;;;;;;;4954551;28;20138;-66
2022/03/16 06:18:39;;;;;;;9.82;7.45;;;;;;;;;;4954692;29;20138;-73
2022/03/16 06:21:05;;;;;;;9.55;8.23;;;;;;;;;;4957591;28;20889;-73
2022/03/16 06:23:31;;;;;;;16.88;7.25;;;;;;;;;;4956696;28;20042;-74
2022/03/16 06:25:57;;;;;;;12.45;7.45;;;;;;;;;;4959212;28;20418;-73
2022/03/16 06:28:23;;;;;;;9.68;7.57;;;;;;;;;;4965465;28;20026;-72
2022/03/16 06:30:49;;;;;;;12.23;7.53;;;;;;;;;;4973795;28;20030;-74
2022/03/16 06:33:15;;;;;;;9.48;7.28;;;;;;;;;;4968750;28;20046;-70
2022/03/16 06:35:41;;;;;;;22.42;8.05;;;;;;;;;;4954715;29;20024;-66
2022/03/16 06:38:07;;;;;;;22.40;8.05;;;;;;;;;;4954248;29;20119;-66
2022/03/16 06:40:33;;;;;;;27.10;7.10;;;;;;;;;;4953832;29;20093;-66
2022/03/16 06:42:59;;;;;;;27.90;7.82;;;;;;;;;;4958614;28;20487;-65
2022/03/16 06:45:26;;;;;;;30.00;7.60;;;;;;;;;;4954543;28;20621;-66
2022/03/16 06:47:56;;;;;;;29.35;8.27;;;;;;;;;;4964967;28;20058;-68
2022/03/16 06:50:22;;;;;;;32.72;7.10;;;;;;;;;;4973778;28;20027;-68
2022/03/16 06:52:48;;;;;;;23.75;7.15;;;;;;;;;;4973226;28;20379;-69
2022/03/16 06:55:14;;;;;;;19.58;6.90;;;;;;;;;;4956120;28;20026;-71
2022/03/16 06:57:41;;;;;;;24.13;7.35;;;;;;;;;;4972461;28;20046;-71
2022/03/16 07:00:08;;;;;;;19.20;7.40;;;;;;;;;;4973281;28;20034;-73
2022/03/16 07:02:49;;;;;;;20.30;6.90;;;;;;;;;;4974094;28;20073;-73
2022/03/16 07:05:15;;;;;;;20.48;6.90;;;;;;;;;;4973999;28;20023;-72
2022/03/16 07:07:41;;;;;;;12.07;7.10;;;;;;;;;;4973849;28;20410;-73
2022/03/16 07:10:07;;;;;;;16.33;6.88;;;;;;;;;;4973852;28;20191;-72
2022/03/16 07:12:33;;;;;;;15.10;6.65;;;;;;;;;;4956403;28;20030;-73
2022/03/16 07:14:59;;;;;;;12.68;6.32;;;;;;;;;;4973939;28;20038;-70
2022/03/16 07:17:25;;;;;;;10.50;5.82;;;;;;;;;;4973602;28;20043;-69
2022/03/16 07:19:51;;;;;;;19.77;7.70;;;;;;;;;;4973406;28;20098;-68
2022/03/16 07:22:17;;;;;;;11.32;6.30;;;;;;;;;;4956249;28;20210;-71
2022/03/16 07:24:43;;;;;;;17.42;6.90;;;;;;;;;;4953676;29;20031;-70
2022/03/16 07:27:11;;;;;;;14.65;6.70;;;;;;;;;;4953215;29;20038;-69
2022/03/16 07:29:38;;;;;;;8.30;6.70;;;;;;;;;;4953625;28;20081;-70
2022/03/16 07:32:04;;;;;;;9.60;6.80;;;;;;;;;;4948453;28;20039;-70
2022/03/16 07:34:30;;;;;;;9.35;6.57;;;;;;;;;;4964004;28;20027;-70
2022/03/16 07:36:56;;;;;;;9.23;6.70;;;;;;;;;;4950750;29;20082;-72
2022/03/16 07:39:22;;;;;;;8.73;6.55;;;;;;;;;;4962385;28;20479;-73
2022/03/16 07:41:48;;;;;;;10.80;6.70;;;;;;;;;;4947463;28;20480;-73
2022/03/16 07:44:15;;;;;;;11.68;5.97;;;;;;;;;;4965182;28;20029;-73
2022/03/16 07:46:41;;;;;;;9.65;5.72;;;;;;;;;;4947616;29;20051;-72
2022/03/16 07:49:07;;;;;;;7.88;5.45;;;;;;;;;;4962744;28;20039;-71
2022/03/16 07:51:33;;;;;;;10.25;6.05;;;;;;;;;;4962183;28;20022;-71
2022/03/16 07:53:59;;;;;;;8.57;5.78;;;;;;;;;;4963103;28;20031;-73
2022/03/16 07:56:25;;;;;;;10.05;5.13;;;;;;;;;;4959671;28;20667;-71
2022/03/16 07:58:51;;;;;;;7.75;5.88;;;;;;;;;;4962723;28;20034;-71
2022/03/16 08:01:17;;;;;;;6.22;5.30;;;;;;;;;;4961563;28;20470;-70
2022/03/16 08:03:43;;;;;;;11.45;5.07;;;;;;;;;;4962258;28;20082;-71
2022/03/16 08:06:09;;;;;;;7.65;4.78;;;;;;;;;;4962522;28;20019;-71
2022/03/16 08:08:39;;;;;;;7.35;4.95;;;;;;;;;;4961325;28;20377;-71
2022/03/16 08:11:05;;;;;;;6.15;4.63;;;;;;;;;;4962582;28;20498;-72
2022/03/16 08:13:31;;;;;;;7.68;4.70;;;;;;;;;;4963204;28;20105;-70
2022/03/16 08:15:57;;;;;;;5.35;4.85;;;;;;;;;;4944300;28;20140;-70
2022/03/16 08:18:23;;;;;;;9.52;5.55;;;;;;;;;;4965932;28;20410;-68
2022/03/16 08:20:49;;;;;;;7.57;5.10;;;;;;;;;;4949781;28;20042;-69
2022/03/16 08:23:15;;;;;;;12.40;5.93;;;;;;;;;;4964624;28;20022;-70
2022/03/16 08:25:41;;;;;;;7.18;6.03;;;;;;;;;;4964456;28;20050;-71
2022/03/16 08:28:07;;;;;;;9.85;6.30;;;;;;;;;;4962135;28;20054;-70
2022/03/16 08:30:34;;;;;;;9.10;6.22;;;;;;;;;;4968383;28;20477;-70
2022/03/16 08:33:00;;;;;;;10.88;7.03;;;;;;;;;;4963533;28;20019;-71
2022/03/16 08:35:27;;;;;;;9.27;6.72;;;;;;;;;;4961542;28;20513;-70
2022/03/16 08:37:53;;;;;;;9.63;6.63;;;;;;;;;;4967265;28;20046;-71
2022/03/16 08:40:19;;;;;;;9.77;6.75;;;;;;;;;;4967612;28;20474;-71
2022/03/16 08:42:45;;;;;;;12.75;7.32;;;;;;;;;;4964435;28;20368;-70
2022/03/16 08:45:11;;;;;;;9.60;6.45;;;;;;;;;;4949207;28;20530;-71
2022/03/16 08:47:37;;;;;;;8.45;6.72;;;;;;;;;;4967875;28;20038;-73
2022/03/16 08:50:04;;;;;;;8.85;6.63;;;;;;;;;;4945262;28;20098;-73
2022/03/16 08:52:30;;;;;;;7.93;6.22;;;;;;;;;;4962952;28;20059;-73
2022/03/16 08:54:56;;;;;;;10.00;6.50;;;;;;;;;;4968251;28;20383;-73
2022/03/16 08:57:22;;;;;;;9.70;6.50;;;;;;;;;;4976285;28;20041;-73
2022/03/16 08:59:48;;;;;;;13.75;6.30;;;;;;;;;;4948891;29;20027;-75
2022/03/16 09:02:15;;;;;;;8.30;6.40;;;;;;;;;;4964038;28;20032;-72
2022/03/16 09:04:41;;;;;;;6.70;5.82;;;;;;;;;;4970554;28;20031;-72
2022/03/16 09:07:07;;;;;;;10.57;7.28;;;;;;;;;;4965955;28;20121;-73
2022/03/16 09:09:33;;;;;;;9.77;7.13;;;;;;;;;;4966956;28;20098;-73
2022/03/16 09:11:59;;;;;;;12.23;7.85;;;;;;;;;;4965079;28;20046;-73
2022/03/16 09:14:25;;;;;;;10.80;7.35;;;;;;;;;;4968074;28;20089;-73
2022/03/16 09:16:51;;;;;;;10.38;8.23;;;;;;;;;;4975781;28;20042;-73
2022/03/16 09:19:21;;;;;;;12.82;7.60;;;;;;;;;;4958919;28;20034;-73
2022/03/16 09:21:50;;;;;;;11.98;7.78;;;;;;;;;;4938196;28;20042;-72
2022/03/16 09:24:17;;;;;;;11.32;7.70;;;;;;;;;;4952224;28;20113;-72
2022/03/16 09:26:43;;;;;;;10.73;7.55;;;;;;;;;;4958805;28;20049;-72
2022/03/16 09:29:09;;;;;;;10.82;7.10;;;;;;;;;;4966663;28;20034;-73
2022/03/16 09:31:36;;;;;;;11.38;7.55;;;;;;;;;;4965765;28;20451;-72
2022/03/16 09:34:05;;;;;;;13.38;7.97;;;;;;;;;;4942094;28;20378;-73
2022/03/16 09:36:31;;;;;;;17.10;7.43;;;;;;;;;;4961394;28;20119;-74
2022/03/16 09:38:57;;;;;;;10.40;8.15;;;;;;;;;;4960469;28;20398;-73
2022/03/16 09:41:23;;;;;;;9.85;8.10;;;;;;;;;;4970316;28;20025;-72
2022/03/16 09:43:49;;;;;;;11.27;8.90;;;;;;;;;;4970375;28;20023;-73
2022/03/16 09:46:20;;;;;;;12.05;8.65;;;;;;;;;;4973685;28;20018;-74
2022/03/16 09:48:46;;;;;;;13.30;8.63;;;;;;;;;;4966421;28;20106;-72
2022/03/16 09:51:12;;;;;;;10.95;8.52;;;;;;;;;;4962677;28;20081;-73
2022/03/16 09:53:38;;;;;;;19.73;8.10;;;;;;;;;;4965974;28;20035;-71
2022/03/16 09:56:08;;;;;;;27.75;9.10;;;;;;;;;;4961083;28;20019;-72
2022/03/16 09:58:34;;;;;;;36.88;7.70;;;;;;;;;;4960808;28;20035;-74
2022/03/16 10:01:05;;;;;;;21.63;7.88;;;;;;;;;;4968571;28;20023;-73
2022/03/16 10:03:31;;;;;;;22.65;8.00;;;;;;;;;;4966458;28;20352;-78
2022/03/16 10:05:58;;;;;;;11.93;7.30;;;;;;;;;;4972517;28;20027;-76
2022/03/16 10:08:31;;;;;;;16.42;6.35;;;;;;;;;;4968754;28;20020;-75
2022/03/16 10:13:57;;;;;;;17.73;7.38;;;;;;;;;;4961865;28;20725;-74
2022/03/16 10:22:01;;;;;;;18.45;7.15;;;;;;;;;;5144702;27;20316;-73
2022/03/16 10:24:30;;;;;;;14.00;7.35;;;;;;;;;;5110106;28;20027;-71
2022/03/16 10:26:59;;;;;;;16.45;7.20;;;;;;;;;;5126117;28;20382;-73
2022/03/16 10:29:31;;;;;;;15.75;7.15;;;;;;;;;;5106980;28;20097;-70
2022/03/16 10:32:06;;;;;;;19.38;7.22;;;;;;;;;;5104283;28;20861;-72
2022/03/16 10:34:33;;;;;;;10.90;7.05;;;;;;;;;;5125161;28;20048;-73
2022/03/16 10:36:59;;;;;;;10.30;6.40;;;;;;;;;;5119754;28;20039;-72
2022/03/16 10:39:52;;;;;;;8.65;6.70;;;;;;;;;;5119206;28;20035;-73
2022/03/16 10:48:11;;;;;;;13.05;6.95;;;;;;;;;;5106357;28;20047;-71
2022/03/16 10:50:41;;;;;;;9.45;6.38;;;;;;;;;;5101117;28;20455;-72
2022/03/16 10:53:07;;;;;;;8.35;6.22;;;;;;;;;;5101503;28;20024;-72
2022/03/16 10:55:35;;;;;;;8.35;6.32;;;;;;;;;;5094197;28;20042;-72
2022/03/16 10:58:02;;;;;;;10.25;6.72;;;;;;;;;;5085972;28;20495;-72
2022/03/16 11:00:28;;;;;;;8.93;7.05;;;;;;;;;;5102427;28;20117;-72
2022/03/16 11:02:56;;;;;;;9.57;6.13;;;;;;;;;;5094612;28;20038;-72
2022/03/16 11:05:23;;;;;;;8.50;6.70;;;;;;;;;;5085413;28;20057;-71
2022/03/16 11:07:50;;;;;;;7.75;6.10;;;;;;;;;;5104297;28;20078;-73
2022/03/16 11:10:18;;;;;;;9.45;6.93;;;;;;;;;;5070606;28;20024;-72
2022/03/16 11:15:30;;;;;;;9.77;7.03;;;;;;;;;;5096233;28;20078;-72
2022/03/16 11:17:56;;;;;;;10.40;6.63;;;;;;;;;;5091077;28;20036;-73
2022/03/16 11:20:22;;;;;;;7.25;6.10;;;;;;;;;;5091680;28;20608;-72
2022/03/16 11:25:49;;;;;;;10.32;6.40;;;;;;;;;;5096629;28;20387;-72
2022/03/16 11:28:17;;;;;;;10.13;7.13;;;;;;;;;;5103000;28;20475;-71
2022/03/16 11:30:43;;;;;;;7.68;6.53;;;;;;;;;;5073354;28;20101;-73
2022/03/16 11:33:15;;;;;;;8.10;6.82;;;;;;;;;;5076650;28;20027;-73
2022/03/16 11:35:44;;;;;;;9.32;6.72;;;;;;;;;;5095226;28;20016;-72
2022/03/16 11:38:15;;;;;;;10.07;6.97;;;;;;;;;;5077332;28;20063;-72
2022/03/16 11:40:43;;;;;;;8.55;7.18;;;;;;;;;;5085272;28;20665;-72
2022/03/16 11:43:11;;;;;;;7.88;6.70;;;;;;;;;;5059977;28;20107;-72
2022/03/16 11:45:50;;;;;;;10.75;7.15;;;;;;;;;;5076626;28;20078;-71
2022/03/16 11:48:31;;;;;;;7.57;6.78;;;;;;;;;;5075591;28;20099;-72
2022/03/16 11:51:07;;;;;;;7.78;6.80;;;;;;;;;;5079664;28;20066;-73
2022/03/16 11:53:49;;;;;;;9.38;6.78;;;;;;;;;;5086407;28;20039;-71
2022/03/16 11:56:29;;;;;;;8.82;6.82;;;;;;;;;;5087954;28;20047;-72
2022/03/16 11:59:02;;;;;;;8.98;7.05;;;;;;;;;;5092379;28;20020;-70
2022/03/16 12:01:37;;;;;;;8.30;7.38;;;;;;;;;;5080976;28;20079;-72
2022/03/16 12:06:50;;;;;;;10.18;7.03;;;;;;;;;;5073757;28;20037;-73
2022/03/16 12:09:18;;;;;;;13.55;6.82;;;;;;;;;;5087361;28;20520;-72
2022/03/16 12:14:57;;;;;;;8.30;7.22;;;;;;;;;;5083581;28;20066;-72
2022/03/16 12:17:23;;;;;;;10.90;7.05;;;;;;;;;;5073079;28;20020;-72
2022/03/16 12:20:11;;;;;;;10.60;7.45;;;;;;;;;;5073700;28;20059;-71
2022/03/16 12:22:47;;;;;;;16.10;7.57;;;;;;;;;;5072094;28;20020;-71
2022/03/16 12:25:22;;;;;;;10.82;7.55;;;;;;;;;;5089021;28;20024;-70
2022/03/16 12:30:39;;;;;;;13.57;7.03;;;;;;;;;;5080758;28;20084;-70
2022/03/16 12:33:05;;;;;;;;;;;;;;;;;;5081556;28;20494;-71
2022/03/16 12:35:34;;;;;;;8.73;7.10;;;;;;;;;;5085772;28;19911;-71
2022/03/16 12:38:01;;;;;;;9.45;7.18;;;;;;;;;;5086458;28;20021;-72
2022/03/16 12:40:29;;;;;;;9.73;6.82;;;;;;;;;;5085041;28;20032;-72
2022/03/16 12:42:56;;;;;;;10.30;7.07;;;;;;;;;;5089017;28;20017;-72
2022/03/16 12:45:25;;;;;;;7.47;6.65;;;;;;;;;;5093437;28;20741;-72
2022/03/16 12:47:58;;;;;;;8.00;7.05;;;;;;;;;;5088346;28;20697;-72
2022/03/16 12:50:27;;;;;;;12.45;6.63;;;;;;;;;;5087100;28;20056;-72
2022/03/16 12:52:53;;;;;;;9.80;7.28;;;;;;;;;;5083246;28;20036;-72
2022/03/16 12:55:19;;;;;;;12.90;6.97;;;;;;;;;;5080768;28;20082;-71
2022/03/16 12:57:55;;;;;;;7.35;6.65;;;;;;;;;;5076794;28;20024;-72
2022/03/16 13:00:21;;;;;;;8.35;6.93;;;;;;;;;;5090559;28;20536;-72
2022/03/16 13:02:47;;;;;;;8.32;6.93;;;;;;;;;;5084637;28;20031;-71
2022/03/16 13:05:18;;;;;;;9.35;7.55;;;;;;;;;;5079662;28;20016;-71
2022/03/16 13:07:45;;;;;;;8.93;7.03;;;;;;;;;;5087082;28;20023;-73
2022/03/16 13:10:11;;;;;;;8.60;6.53;;;;;;;;;;5087781;28;20020;-72
2022/03/16 13:12:56;;;;;;;8.50;7.00;;;;;;;;;;5079695;28;20028;-71
2022/03/16 13:15:25;;;;;;;8.57;6.75;;;;;;;;;;5059867;28;20024;-72
2022/03/16 13:17:51;;;;;;;8.68;6.80;;;;;;;;;;5087022;28;20513;-71
2022/03/16 13:20:28;;;;;;;8.65;6.93;;;;;;;;;;5088686;28;20049;-72
2022/03/16 13:23:04;;;;;;;8.13;6.70;;;;;;;;;;5084726;28;20068;-72
2022/03/16 13:25:30;;;;;;;8.68;6.53;;;;;;;;;;5092692;28;20051;-72
2022/03/16 13:27:56;;;;;;;9.00;6.55;;;;;;;;;;5065969;28;20028;-72
2022/03/16 13:30:24;;;;;;;7.70;6.70;;;;;;;;;;5083573;28;20032;-71
2022/03/16 13:32:53;;;;;;;7.65;6.65;;;;;;;;;;5081612;28;20120;-71
2022/03/16 13:35:28;;;;;;;8.32;6.72;;;;;;;;;;5069483;28;20031;-72
2022/03/16 13:38:03;;;;;;;7.90;6.85;;;;;;;;;;5087775;28;20044;-72
2022/03/16 13:40:41;;;;;;;7.38;6.53;;;;;;;;;;5075033;28;20037;-72
2022/03/16 13:43:08;;;;;;;7.65;6.85;;;;;;;;;;5057048;28;20019;-70
2022/03/16 13:45:41;;;;;;;9.93;6.35;;;;;;;;;;5085293;28;20364;-72
2022/03/16 13:48:13;;;;;;;8.45;6.50;;;;;;;;;;5082942;28;20050;-71
2022/03/16 13:51:00;;;;;;;8.00;6.83;;;;;;;;;;5081139;28;20051;-71
2022/03/16 13:53:27;;;;;;;9.23;6.68;;;;;;;;;;5086954;28;20031;-71
2022/03/16 13:55:54;;;;;;;8.50;6.72;;;;;;;;;;5080013;28;20573;-71
2022/03/16 13:58:25;;;;;;;6.80;6.15;;;;;;;;;;5076170;28;20024;-72
2022/03/16 14:00:54;;;;;;;8.45;6.60;;;;;;;;;;5086987;28;20114;-72
2022/03/16 14:03:22;;;;;;;7.97;6.55;;;;;;;;;;5064654;28;20020;-72
2022/03/16 14:05:48;;;;;;;7.05;6.32;;;;;;;;;;5078176;28;20052;-72
2022/03/16 14:08:14;;;;;;;8.43;6.57;;;;;;;;;;5086986;28;20736;-73
2022/03/16 14:10:41;;;;;;;9.18;7.05;;;;;;;;;;5074325;28;20050;-73
2022/03/16 14:13:07;;;;;;;7.00;6.30;;;;;;;;;;5073488;28;20388;-73
2022/03/16 14:15:34;;;;;;;8.48;5.95;;;;;;;;;;5087400;28;20032;-72
2022/03/16 14:18:10;;;;;;;8.23;6.65;;;;;;;;;;5064867;28;20016;-72
2022/03/16 14:20:37;;;;;;;8.52;6.50;;;;;;;;;;5076190;28;20078;-72
2022/03/16 14:23:04;;;;;;;7.15;6.45;;;;;;;;;;5059148;28;20035;-73
2022/03/16 14:25:34;;;;;;;6.85;6.15;;;;;;;;;;5079573;28;20087;-71
2022/03/16 14:28:02;;;;;;;9.90;6.18;;;;;;;;;;5079228;28;20365;-72
2022/03/16 14:30:29;;;;;;;8.57;6.65;;;;;;;;;;5078478;28;20026;-73
2022/03/16 14:33:00;;;;;;;6.78;6.00;;;;;;;;;;5063498;28;20017;-73
2022/03/16 14:35:26;;;;;;;7.97;6.45;;;;;;;;;;5073989;28;20158;-72
2022/03/16 14:37:52;;;;;;;6.80;6.10;;;;;;;;;;5087353;28;20016;-72
2022/03/16 14:40:21;;;;;;;7.88;6.20;;;;;;;;;;5080080;28;20036;-72
2022/03/16 14:42:47;;;;;;;7.70;6.60;;;;;;;;;;5080193;28;20020;-72
2022/03/16 14:45:13;;;;;;;6.82;6.13;;;;;;;;;;5064752;28;20438;-73
2022/03/16 14:47:39;;;;;;;7.97;6.45;;;;;;;;;;5081030;28;20119;-72
2022/03/16 14:50:05;;;;;;;7.20;5.82;;;;;;;;;;5079989;28;20021;-71
2022/03/16 14:52:33;;;;;;;6.85;6.03;;;;;;;;;;5083766;28;20027;-71
2022/03/16 14:54:59;;;;;;;10.15;6.82;;;;;;;;;;5071806;28;20035;-72
2022/03/16 14:57:25;;;;;;;6.88;6.00;;;;;;;;;;5073765;28;20104;-72
2022/03/16 14:59:52;;;;;;;7.18;5.75;;;;;;;;;;5085259;28;20049;-72
2022/03/16 15:02:18;;;;;;;6.70;6.00;;;;;;;;;;5086131;28;20051;-72
2022/03/16 15:04:45;;;;;;;6.55;5.82;;;;;;;;;;5082902;28;20072;-72
2022/03/16 15:07:11;;;;;;;7.20;5.80;;;;;;;;;;5083178;28;20024;-72
2022/03/16 15:09:38;;;;;;;8.35;6.22;;;;;;;;;;5079074;28;20032;-73